createdAt,value
2018-07-13T00:00:34.048Z,4.93
2018-07-13T00:03:02.149Z,5.50
2018-07-13T00:05:30.316Z,4.83
2018-07-13T00:07:58.398Z,5.90
2018-07-13T00:10:26.475Z,5.57
2018-07-13T00:12:54.498Z,5.10
2018-07-13T00:15:22.658Z,5.30
2018-07-13T00:17:50.739Z,6.17
2018-07-13T00:20:18.771Z,5.43
2018-07-13T00:22:46.862Z,4.97
2018-07-13T00:25:14.989Z,5.53
2018-07-13T00:27:43.072Z,4.97
2018-07-13T00:30:11.229Z,5.10
2018-07-13T00:32:39.288Z,5.40
2018-07-13T00:35:07.380Z,5.27
2018-07-13T00:37:35.425Z,5.97
2018-07-13T00:40:03.660Z,6.70
2018-07-13T00:42:31.714Z,6.67
2018-07-13T00:44:59.742Z,6.10
2018-07-13T00:47:27.806Z,5.87
2018-07-13T00:49:55.842Z,5.53
2018-07-13T00:52:23.958Z,5.70
2018-07-13T00:54:52.150Z,6.60
2018-07-13T00:57:20.237Z,6.80
2018-07-13T00:59:48.309Z,5.87
2018-07-13T01:02:16.366Z,6.70
2018-07-13T01:04:44.449Z,5.70
2018-07-13T01:07:12.637Z,5.87
2018-07-13T01:09:40.708Z,6.83
2018-07-13T01:12:09.007Z,6.90
2018-07-13T01:14:37.190Z,7.03
2018-07-13T01:17:05.299Z,6.47
2018-07-13T01:19:33.346Z,5.97
2018-07-13T01:22:01.503Z,6.23
2018-07-13T01:24:29.567Z,6.27
2018-07-13T01:26:57.607Z,5.07
2018-07-13T01:29:25.671Z,6.23
2018-07-13T01:31:53.725Z,6.27
2018-07-13T01:34:21.767Z,6.40
2018-07-13T01:36:49.788Z,6.50
2018-07-13T01:39:17.855Z,6.60
2018-07-13T01:41:45.906Z,5.97
2018-07-13T01:44:14.000Z,6.87
2018-07-13T01:46:42.097Z,5.57
2018-07-13T01:49:10.162Z,6.87
2018-07-13T01:51:38.349Z,7.33
2018-07-13T01:54:06.466Z,5.50
2018-07-13T01:56:34.526Z,7.97
2018-07-13T01:59:02.588Z,6.80
2018-07-13T02:01:30.715Z,5.87
2018-07-13T02:03:58.880Z,6.57
2018-07-13T02:06:26.912Z,6.53
2018-07-13T02:08:54.978Z,4.80
2018-07-13T02:11:23.046Z,7.77
2018-07-13T02:13:51.118Z,7.80
2018-07-13T02:16:19.192Z,6.43
2018-07-13T02:18:47.588Z,7.97
2018-07-13T02:21:15.690Z,8.43
2018-07-13T02:23:43.759Z,7.57
2018-07-13T02:26:11.822Z,7.43
2018-07-13T02:28:39.872Z,7.77
2018-07-13T02:31:08.059Z,7.97
2018-07-13T02:33:36.220Z,7.17
2018-07-13T02:36:04.348Z,7.07
2018-07-13T02:38:32.432Z,7.00
2018-07-13T02:41:00.534Z,8.40
2018-07-13T02:43:28.597Z,6.90
2018-07-13T02:45:56.649Z,7.07
2018-07-13T02:48:24.770Z,8.27
2018-07-13T02:50:52.817Z,6.13
2018-07-13T02:53:20.871Z,7.70
2018-07-13T02:55:48.939Z,8.57
2018-07-13T02:58:16.988Z,7.20
2018-07-13T03:00:45.077Z,8.03
2018-07-13T03:03:13.299Z,7.63
2018-07-13T03:05:41.355Z,7.90
2018-07-13T03:08:09.437Z,6.10
2018-07-13T03:10:37.495Z,8.37
2018-07-13T03:13:05.687Z,7.33
2018-07-13T03:15:33.769Z,7.30
2018-07-13T03:18:01.949Z,6.90
2018-07-13T03:20:30.081Z,7.40
2018-07-13T03:22:58.171Z,7.40
2018-07-13T03:25:26.257Z,6.80
2018-07-13T03:27:54.367Z,7.90
2018-07-13T03:30:22.559Z,6.70
2018-07-13T03:32:50.753Z,7.17
2018-07-13T03:35:18.889Z,8.23
2018-07-13T03:37:47.049Z,6.47
2018-07-13T03:40:15.275Z,8.40
2018-07-13T03:42:43.311Z,8.40
2018-07-13T03:45:11.377Z,7.00
2018-07-13T03:47:39.457Z,7.40
2018-07-13T03:50:07.568Z,8.10
2018-07-13T03:52:35.677Z,8.13
2018-07-13T03:55:04.201Z,7.57
2018-07-13T03:57:32.367Z,7.63
2018-07-13T04:00:00.437Z,6.53
2018-07-13T04:02:28.503Z,8.37
2018-07-13T04:04:56.578Z,8.50
2018-07-13T04:07:24.773Z,8.10
2018-07-13T04:09:52.838Z,8.43
2018-07-13T04:12:20.977Z,8.37
2018-07-13T04:14:49.263Z,7.60
2018-07-13T04:17:17.484Z,6.90
2018-07-13T04:19:45.735Z,8.63
2018-07-13T04:22:14.507Z,7.87
2018-07-13T04:24:42.601Z,9.40
2018-07-13T04:27:10.757Z,6.80
2018-07-13T04:29:38.821Z,7.00
2018-07-13T04:32:06.944Z,8.47
2018-07-13T04:34:35.035Z,8.07
2018-07-13T04:37:03.157Z,7.27
2018-07-13T04:39:31.811Z,7.43
2018-07-13T04:41:59.929Z,7.70
2018-07-13T04:44:28.065Z,9.23
2018-07-13T04:46:56.151Z,7.97
2018-07-13T04:49:24.247Z,8.20
2018-07-13T04:51:54.255Z,7.30
2018-07-13T04:54:22.668Z,7.87
2018-07-13T04:56:50.707Z,6.40
2018-07-13T04:59:19.603Z,7.83
2018-07-13T05:01:47.887Z,6.93
2018-07-13T05:04:15.990Z,7.70
2018-07-13T05:06:44.085Z,8.13
2018-07-13T05:09:12.226Z,6.90
2018-07-13T05:11:40.365Z,7.33
2018-07-13T05:14:08.695Z,5.57
2018-07-13T05:16:36.748Z,7.53
2018-07-13T05:19:04.927Z,7.20
2018-07-13T05:21:32.987Z,7.60
2018-07-13T05:24:01.040Z,7.53
2018-07-13T05:26:29.557Z,7.60
2018-07-13T05:28:57.629Z,8.37
2018-07-13T05:31:25.866Z,7.87
2018-07-13T05:33:53.945Z,8.70
2018-07-13T05:36:22.008Z,7.77
2018-07-13T05:38:50.158Z,8.17
2018-07-13T05:41:19.250Z,7.83
2018-07-13T05:43:47.489Z,7.23
2018-07-13T05:46:15.572Z,8.40
2018-07-13T05:48:43.694Z,7.80
2018-07-13T05:51:11.841Z,9.77
2018-07-13T05:53:39.975Z,9.77
2018-07-13T05:56:08.512Z,9.80
2018-07-13T05:58:36.872Z,8.80
2018-07-13T06:01:05.046Z,8.47
2018-07-13T06:03:33.082Z,8.10
2018-07-13T06:06:01.195Z,7.73
2018-07-13T06:08:29.698Z,7.40
2018-07-13T06:10:57.797Z,9.13
2018-07-13T06:13:26.075Z,8.83
2018-07-13T06:15:54.138Z,8.57
2018-07-13T06:18:22.236Z,8.20
2018-07-13T06:20:50.411Z,8.13
2018-07-13T06:23:18.498Z,8.20
2018-07-13T06:25:47.229Z,8.33
2018-07-13T06:28:15.632Z,8.33
2018-07-13T06:30:43.651Z,7.47
2018-07-13T06:33:11.734Z,8.23
2018-07-13T06:35:39.833Z,8.20
2018-07-13T06:38:07.905Z,7.87
2018-07-13T06:40:36.163Z,8.10
2018-07-13T06:43:05.033Z,7.97
2018-07-13T06:45:35.626Z,6.97
2018-07-13T06:48:04.051Z,6.77
2018-07-13T06:50:32.260Z,5.67
2018-07-13T06:53:00.292Z,6.90
2018-07-13T06:55:28.500Z,6.80
2018-07-13T06:58:02.221Z,7.50
2018-07-13T07:01:03.332Z,6.50
2018-07-13T07:03:32.534Z,7.20
2018-07-13T07:06:08.814Z,6.67
2018-07-13T07:08:37.736Z,6.77
2018-07-13T07:11:06.072Z,5.50
2018-07-13T07:13:35.857Z,6.80
2018-07-13T07:16:04.013Z,6.83
2018-07-13T07:18:32.237Z,7.10
2018-07-13T07:21:00.300Z,6.73
2018-07-13T07:23:29.222Z,6.47
2018-07-13T07:25:57.885Z,7.37
2018-07-13T07:28:26.486Z,6.23
2018-07-13T07:30:55.068Z,6.50
2018-07-13T07:33:23.332Z,6.57
2018-07-13T07:35:52.924Z,7.00
2018-07-13T07:38:21.311Z,6.50
2018-07-13T07:40:49.893Z,6.90
2018-07-13T07:43:18.612Z,5.83
2018-07-13T07:45:46.816Z,6.37
2018-07-13T07:48:14.947Z,5.97
2018-07-13T07:50:43.192Z,6.43
2018-07-13T07:53:11.524Z,6.60
2018-07-13T07:55:39.601Z,6.53
2018-07-13T07:58:07.681Z,6.17
2018-07-13T08:00:35.948Z,6.57
2018-07-13T08:03:04.069Z,4.90
2018-07-13T08:05:32.156Z,5.50
2018-07-13T08:08:00.346Z,5.80
2018-07-13T08:10:28.499Z,5.57
2018-07-13T08:12:58.709Z,5.20
2018-07-13T08:15:26.875Z,5.45
2018-07-13T08:17:54.949Z,5.23
2018-07-13T08:20:26.143Z,6.60
2018-07-13T08:22:56.057Z,5.30
2018-07-13T08:25:24.893Z,5.93
2018-07-13T08:27:53.184Z,6.47
2018-07-13T08:30:22.858Z,5.70
2018-07-13T08:32:50.942Z,5.60
2018-07-13T08:35:19.201Z,5.30
2018-07-13T08:37:47.463Z,5.10
2018-07-13T08:40:15.518Z,4.57
2018-07-13T08:42:43.617Z,4.93
2018-07-13T08:45:12.219Z,4.53
2018-07-13T08:47:40.337Z,4.57
2018-07-13T08:50:08.518Z,5.03
2018-07-13T08:52:36.771Z,4.40
2018-07-13T08:55:11.266Z,5.20
2018-07-13T08:57:40.055Z,4.93
2018-07-13T09:00:08.655Z,4.17
2018-07-13T09:02:37.546Z,4.90
2018-07-13T09:05:06.154Z,4.20
2018-07-13T09:07:35.561Z,4.30
2018-07-13T09:10:04.219Z,3.90
2018-07-13T09:12:33.040Z,4.20
2018-07-13T09:15:01.277Z,3.57
2018-07-13T09:17:29.565Z,4.07
2018-07-13T09:19:57.901Z,3.40
2018-07-13T09:22:25.979Z,3.50
2018-07-13T09:24:54.090Z,4.37
2018-07-13T09:27:22.172Z,3.60
2018-07-13T09:29:50.336Z,3.30
2018-07-13T09:32:18.460Z,2.90
2018-07-13T09:34:46.529Z,2.80
2018-07-13T09:37:14.580Z,3.50
2018-07-13T09:39:42.723Z,3.57
2018-07-13T09:42:10.816Z,3.50
2018-07-13T09:44:38.900Z,3.30
2018-07-13T09:47:07.015Z,3.70
2018-07-13T09:49:35.117Z,3.63
2018-07-13T09:52:03.181Z,3.40
2018-07-13T09:54:31.327Z,3.50
2018-07-13T09:56:59.403Z,3.23
2018-07-13T09:59:27.480Z,3.50
2018-07-13T10:01:55.883Z,3.57
2018-07-13T10:04:24.004Z,2.93
2018-07-13T10:06:52.061Z,2.70
2018-07-13T10:09:20.349Z,3.03
2018-07-13T10:11:48.417Z,3.57
2018-07-13T10:14:16.524Z,3.27
2018-07-13T10:16:44.601Z,2.90
2018-07-13T10:19:12.731Z,3.83
2018-07-13T10:21:42.103Z,3.50
2018-07-13T10:24:10.467Z,3.30
2018-07-13T10:26:39.189Z,3.17
2018-07-13T10:29:15.463Z,3.57
2018-07-13T10:31:43.573Z,3.00
2018-07-13T10:34:11.649Z,3.57
2018-07-13T10:36:41.363Z,3.30
2018-07-13T10:39:10.017Z,3.40
2018-07-13T10:41:38.147Z,3.75
2018-07-13T10:44:06.260Z,3.70
2018-07-13T10:46:34.354Z,3.55
2018-07-13T10:49:02.416Z,4.00
2018-07-13T10:51:30.552Z,4.30
2018-07-13T10:53:58.630Z,3.77
2018-07-13T10:56:27.313Z,3.40
2018-07-13T10:58:55.734Z,3.77
2018-07-13T11:01:24.408Z,3.60
2018-07-13T11:03:52.457Z,3.55
2018-07-13T11:06:20.512Z,3.60
2018-07-13T11:08:48.579Z,3.67
2018-07-13T11:11:16.755Z,3.60
2018-07-13T11:13:44.892Z,3.80
2018-07-13T11:16:13.327Z,3.90
2018-07-13T11:18:41.408Z,3.50
2018-07-13T11:21:09.523Z,3.65
2018-07-13T11:23:37.750Z,3.55
2018-07-13T11:26:05.814Z,3.10
2018-07-13T11:28:33.917Z,3.42
2018-07-13T11:31:02.339Z,3.70
2018-07-13T11:33:30.396Z,3.60
2018-07-13T11:35:58.432Z,3.20
2018-07-13T11:38:26.502Z,3.30
2018-07-13T11:40:54.578Z,4.50
2018-07-13T11:43:22.672Z,3.22
2018-07-13T11:45:50.774Z,2.92
2018-07-13T11:48:18.942Z,3.15
2018-07-13T11:50:46.998Z,2.83
2018-07-13T11:53:15.127Z,3.92
2018-07-13T11:55:43.247Z,3.62
2018-07-13T11:58:11.331Z,3.15
2018-07-13T12:00:39.500Z,3.20
2018-07-13T12:03:07.931Z,3.00
2018-07-13T12:05:36.062Z,2.80
2018-07-13T12:08:04.284Z,3.40
2018-07-13T12:10:32.452Z,3.10
2018-07-13T12:13:00.578Z,2.83
2018-07-13T12:15:28.785Z,2.80
2018-07-13T12:17:57.018Z,2.80
2018-07-13T12:20:25.097Z,3.27
2018-07-13T12:22:53.202Z,3.12
2018-07-13T12:25:21.293Z,3.25
2018-07-13T12:27:49.421Z,2.77
2018-07-13T12:30:17.586Z,2.98
2018-07-13T12:32:45.644Z,2.90
2018-07-13T12:35:13.967Z,2.80
2018-07-13T12:37:42.141Z,2.58
2018-07-13T12:40:11.305Z,3.77
2018-07-13T12:42:39.385Z,2.80
2018-07-13T12:45:07.891Z,3.42
2018-07-13T12:47:35.963Z,3.05
2018-07-13T12:50:04.085Z,2.95
2018-07-13T12:52:32.154Z,2.95
2018-07-13T12:55:00.257Z,3.10
2018-07-13T12:57:28.351Z,2.65
2018-07-13T12:59:56.489Z,3.02
2018-07-13T13:02:24.618Z,3.37
2018-07-13T13:04:52.724Z,3.20
2018-07-13T13:07:21.347Z,2.40
2018-07-13T13:09:49.439Z,3.10
2018-07-13T13:12:17.614Z,3.80
2018-07-13T13:14:45.751Z,3.50
2018-07-13T13:17:13.819Z,3.20
2018-07-13T13:19:41.890Z,2.85
2018-07-13T13:22:09.955Z,3.10
2018-07-13T13:24:38.248Z,2.90
2018-07-13T13:27:06.425Z,3.35
2018-07-13T13:29:34.475Z,3.08
2018-07-13T13:32:02.588Z,2.90
2018-07-13T13:34:30.703Z,3.00
2018-07-13T13:36:58.768Z,3.47
2018-07-13T13:39:26.839Z,3.30
2018-07-13T13:41:54.893Z,3.30
2018-07-13T13:44:24.015Z,3.20
2018-07-13T13:46:52.544Z,3.20
2018-07-13T13:49:20.706Z,3.17
2018-07-13T13:51:48.763Z,3.15
2018-07-13T13:54:16.889Z,3.20
2018-07-13T13:56:45.400Z,2.83
2018-07-13T13:59:13.472Z,3.20
2018-07-13T14:01:41.581Z,3.22
2018-07-13T14:04:09.717Z,3.02
2018-07-13T14:06:37.798Z,2.72
2018-07-13T14:09:06.962Z,3.00
2018-07-13T14:11:35.094Z,3.40
2018-07-13T14:14:03.431Z,2.92
2018-07-13T14:16:31.574Z,3.40
2018-07-13T14:18:59.692Z,3.05
2018-07-13T14:21:27.838Z,3.12
2018-07-13T14:23:55.920Z,2.85
2018-07-13T14:26:24.179Z,3.17
2018-07-13T14:28:52.332Z,3.50
2018-07-13T14:31:20.386Z,3.45
2018-07-13T14:33:48.826Z,3.37
2018-07-13T14:36:16.909Z,3.27
2018-07-13T14:38:44.969Z,3.50
2018-07-13T14:41:13.030Z,3.50
2018-07-13T14:43:41.212Z,3.47
2018-07-13T14:46:09.266Z,3.47
2018-07-13T14:48:37.371Z,3.50
2018-07-13T14:51:05.561Z,3.47
2018-07-13T14:53:33.877Z,3.22
2018-07-13T14:56:02.047Z,3.67
2018-07-13T14:58:30.130Z,3.37
2018-07-13T15:00:58.269Z,3.22
2018-07-13T15:03:26.533Z,3.20
2018-07-13T15:05:55.167Z,3.70
2018-07-13T15:08:23.229Z,3.05
2018-07-13T15:10:51.569Z,3.40
2018-07-13T15:13:20.359Z,3.70
2018-07-13T15:15:48.417Z,3.12
2018-07-13T15:18:16.624Z,3.58
2018-07-13T15:20:45.025Z,3.02
2018-07-13T15:23:13.125Z,3.40
2018-07-13T15:25:42.181Z,3.37
2018-07-13T15:28:10.283Z,2.95
2018-07-13T15:30:38.329Z,3.10
2018-07-13T15:33:06.473Z,3.45
2018-07-13T15:35:34.525Z,3.10
2018-07-13T15:38:02.601Z,3.72
2018-07-13T15:40:30.846Z,3.37
2018-07-13T15:42:59.260Z,3.60
2018-07-13T15:45:27.615Z,3.60
2018-07-13T15:47:55.772Z,3.15
2018-07-13T15:50:24.075Z,3.10
2018-07-13T15:52:52.162Z,2.55
2018-07-13T15:55:20.332Z,3.00
2018-07-13T15:57:48.426Z,3.33
2018-07-13T16:00:16.501Z,3.20
2018-07-13T16:02:44.744Z,3.30
2018-07-13T16:05:13.955Z,3.05
2018-07-13T16:07:41.986Z,3.25
2018-07-13T16:10:10.079Z,2.95
2018-07-13T16:12:38.124Z,3.52
2018-07-13T16:15:06.232Z,3.15
2018-07-13T16:17:35.180Z,3.30
2018-07-13T16:20:03.291Z,3.33
2018-07-13T16:22:31.369Z,3.27
2018-07-13T16:24:59.672Z,3.08
2018-07-13T16:27:27.888Z,3.20
2018-07-13T16:29:56.912Z,2.87
2018-07-13T16:32:25.046Z,3.40
2018-07-13T16:34:53.217Z,3.60
2018-07-13T16:37:21.448Z,3.30
2018-07-13T16:39:49.612Z,3.62
2018-07-13T16:42:17.682Z,3.10
2018-07-13T16:44:49.219Z,3.10
2018-07-13T16:47:17.279Z,3.15
2018-07-13T16:49:45.326Z,3.33
2018-07-13T16:52:13.535Z,3.22
2018-07-13T16:54:41.593Z,3.02
2018-07-13T16:57:09.641Z,3.45
2018-07-13T16:59:37.718Z,3.27
2018-07-13T17:02:05.815Z,3.20
2018-07-13T17:04:33.869Z,2.83
2018-07-13T17:07:02.935Z,3.42
2018-07-13T17:09:31.075Z,3.33
2018-07-13T17:11:59.443Z,3.70
2018-07-13T17:14:27.649Z,3.58
2018-07-13T17:16:55.734Z,3.47
2018-07-13T17:19:23.806Z,3.17
2018-07-13T17:21:52.032Z,3.52
2018-07-13T17:24:21.412Z,4.05
2018-07-13T17:26:49.668Z,3.58
2018-07-13T17:29:17.773Z,3.30
2018-07-13T17:31:45.825Z,3.30
2018-07-13T17:34:13.873Z,3.00
2018-07-13T17:36:41.928Z,3.77
2018-07-13T17:39:09.988Z,3.65
2018-07-13T17:41:38.031Z,2.98
2018-07-13T17:44:06.311Z,3.15
2018-07-13T17:46:34.441Z,3.00
2018-07-13T17:49:02.559Z,3.25
2018-07-13T17:51:30.666Z,3.45
2018-07-13T17:53:58.700Z,3.08
2018-07-13T17:56:26.765Z,3.30
2018-07-13T17:58:54.838Z,3.58
2018-07-13T18:01:23.000Z,3.35
2018-07-13T18:03:51.073Z,3.80
2018-07-13T18:06:19.145Z,3.45
2018-07-13T18:08:47.223Z,3.15
2018-07-13T18:11:15.319Z,3.40
2018-07-13T18:13:43.657Z,3.15
2018-07-13T18:16:11.693Z,3.20
2018-07-13T18:18:39.754Z,3.70
2018-07-13T18:21:07.837Z,3.40
2018-07-13T18:23:35.889Z,3.47
2018-07-13T18:26:04.045Z,3.22
2018-07-13T18:28:32.205Z,3.25
2018-07-13T18:31:00.251Z,3.70
2018-07-13T18:33:28.395Z,3.17
2018-07-13T18:35:57.137Z,3.00
2018-07-13T18:38:25.170Z,3.65
2018-07-13T18:40:53.273Z,3.45
2018-07-13T18:43:21.422Z,3.27
2018-07-13T18:45:49.587Z,2.98
2018-07-13T18:48:17.700Z,3.33
2018-07-13T18:50:45.795Z,3.37
2018-07-13T18:53:13.906Z,3.30
2018-07-13T18:55:42.047Z,3.02
2018-07-13T18:58:10.171Z,3.65
2018-07-13T19:00:38.264Z,3.25
2018-07-13T19:03:06.463Z,3.40
2018-07-13T19:05:34.557Z,4.15
2018-07-13T19:08:02.687Z,3.70
2018-07-13T19:10:30.762Z,3.40
2018-07-13T19:12:58.881Z,3.37
2018-07-13T19:15:26.941Z,3.37
2018-07-13T19:17:55.436Z,3.30
2018-07-13T19:20:23.757Z,3.40
2018-07-13T19:22:51.852Z,3.43
2018-07-13T19:25:20.112Z,3.10
2018-07-13T19:27:48.210Z,3.60
2018-07-13T19:30:16.445Z,3.80
2018-07-13T19:32:44.486Z,3.63
2018-07-13T19:35:12.559Z,3.50
2018-07-13T19:37:40.617Z,3.60
2018-07-13T19:40:09.685Z,3.50
2018-07-13T19:42:37.762Z,3.50
2018-07-13T19:45:06.044Z,3.47
2018-07-13T19:47:34.142Z,3.73
2018-07-13T19:50:02.254Z,3.40
2018-07-13T19:52:30.930Z,3.40
2018-07-13T19:54:59.000Z,3.90
2018-07-13T19:57:27.208Z,3.67
2018-07-13T19:59:55.154Z,3.87
2018-07-13T20:02:23.221Z,4.40
2018-07-13T20:04:51.328Z,4.60
2018-07-13T20:07:19.412Z,3.97
2018-07-13T20:09:47.698Z,3.47
2018-07-13T20:12:15.847Z,4.00
2018-07-13T20:14:43.918Z,4.30
2018-07-13T20:17:12.066Z,4.20
2018-07-13T20:19:40.082Z,4.10
2018-07-13T20:22:08.377Z,4.07
2018-07-13T20:24:36.431Z,4.20
2018-07-13T20:27:04.766Z,4.90
2018-07-13T20:29:32.935Z,3.80
2018-07-13T20:32:01.099Z,4.20
2018-07-13T20:34:29.161Z,4.20
2018-07-13T20:36:57.229Z,4.27
2018-07-13T20:39:25.325Z,4.60
2018-07-13T20:41:57.230Z,5.07
2018-07-13T20:44:25.417Z,4.80
2018-07-13T20:46:53.533Z,5.20
2018-07-13T20:49:21.639Z,4.77
2018-07-13T20:51:49.807Z,4.80
2018-07-13T20:54:18.263Z,4.50
2018-07-13T20:56:46.453Z,5.10
2018-07-13T20:59:14.794Z,4.43
2018-07-13T21:01:42.915Z,4.83
2018-07-13T21:04:11.023Z,5.10
2018-07-13T21:06:39.436Z,4.80
2018-07-13T21:09:08.411Z,4.50
2018-07-13T21:11:36.441Z,4.67
2018-07-13T21:14:04.564Z,4.47
2018-07-13T21:16:32.707Z,4.67
2018-07-13T21:19:00.758Z,4.87
2018-07-13T21:21:28.969Z,4.73
2018-07-13T21:23:57.011Z,4.37
2018-07-13T21:26:25.170Z,4.13
2018-07-13T21:28:53.258Z,4.50
2018-07-13T21:31:21.597Z,4.77
2018-07-13T21:33:49.743Z,4.80
2018-07-13T21:36:17.903Z,4.37
2018-07-13T21:38:46.132Z,4.73
2018-07-13T21:41:14.333Z,4.30
2018-07-13T21:43:42.441Z,5.20
2018-07-13T21:46:11.761Z,4.80
2018-07-13T21:48:39.922Z,4.50
2018-07-13T21:51:10.677Z,4.20
2018-07-13T21:53:38.831Z,4.13
2018-07-13T21:56:06.941Z,4.97
2018-07-13T21:58:35.712Z,5.00
2018-07-13T22:01:03.866Z,4.47
2018-07-13T22:03:31.943Z,4.60
2018-07-13T22:06:00.515Z,4.63
2018-07-13T22:08:28.561Z,4.50
2018-07-13T22:11:00.180Z,4.27
2018-07-13T22:13:28.419Z,5.03
2018-07-13T22:15:56.716Z,4.97
2018-07-13T22:18:24.890Z,5.10
2018-07-13T22:20:52.952Z,4.57
2018-07-13T22:23:21.025Z,4.83
2018-07-13T22:25:49.136Z,4.13
2018-07-13T22:28:17.263Z,5.10
2018-07-13T22:30:45.605Z,4.80
2018-07-13T22:33:13.639Z,4.90
2018-07-13T22:35:41.675Z,4.83
2018-07-13T22:38:09.754Z,4.77
2018-07-13T22:40:37.822Z,5.10
2018-07-13T22:43:05.924Z,4.53
2018-07-13T22:45:34.018Z,4.33
2018-07-13T22:48:02.086Z,4.80
2018-07-13T22:50:30.187Z,4.33
2018-07-13T22:52:58.250Z,5.33
2018-07-13T22:55:26.304Z,4.53
2018-07-13T22:57:54.385Z,4.90
2018-07-13T23:00:22.522Z,4.97
2018-07-13T23:02:50.558Z,4.80
2018-07-13T23:05:18.574Z,4.57
2018-07-13T23:07:46.640Z,4.50
2018-07-13T23:10:14.665Z,4.57
2018-07-13T23:12:48.192Z,5.07
2018-07-13T23:15:16.528Z,4.93
2018-07-13T23:17:44.568Z,5.10
2018-07-13T23:20:12.682Z,4.80
2018-07-13T23:22:40.738Z,5.37
2018-07-13T23:25:09.104Z,5.53
2018-07-13T23:27:37.195Z,5.00
2018-07-13T23:30:05.242Z,5.13
2018-07-13T23:32:33.438Z,4.27
2018-07-13T23:35:01.550Z,4.73
2018-07-13T23:37:29.621Z,5.47
2018-07-13T23:39:57.730Z,4.20
2018-07-13T23:42:26.079Z,4.60
2018-07-13T23:44:54.106Z,4.63
2018-07-13T23:47:22.170Z,4.67
2018-07-13T23:49:50.322Z,4.30
2018-07-13T23:52:18.985Z,4.10
2018-07-13T23:54:47.411Z,4.57
2018-07-13T23:57:15.506Z,5.00
2018-07-13T23:59:43.634Z,4.57
